Time;durP1;ratioP1;P1;durP2;ratioP2;P2;SDS_P1;SDS_P2;PMS_P1;PMS_P2;Temp;Humidity;BMP_temperature;BMP_pressure;BME280_temperature;BME280_humidity;BME280_pressure;Samples;Min_cycle;Max_cycle;Signal;HPM_P1;HPM_P2
2021/12/21 00:00:48;;;;;;;17.30;11.88;;;8.30;63.70;;;;;;4956716;28;20054;-80
2021/12/21 00:03:15;;;;;;;17.38;11.95;;;8.20;63.70;;;;;;4958906;28;20484;-80
2021/12/21 00:05:41;;;;;;;13.77;10.85;;;8.20;63.70;;;;;;4958708;29;20050;-81
2021/12/21 00:08:09;;;;;;;14.15;11.52;;;8.20;63.20;;;;;;4957466;29;20094;-81
2021/12/21 00:10:35;;;;;;;15.68;11.55;;;8.20;63.60;;;;;;4956588;29;20041;-80
2021/12/21 00:13:06;;;;;;;13.90;10.38;;;8.20;63.70;;;;;;4956395;29;20126;-81
2021/12/21 00:18:25;;;;;;;12.73;9.88;;;8.20;63.30;;;;;;4953646;29;20146;-81
2021/12/21 00:25:44;;;;;;;14.27;10.73;;;8.30;63.40;;;;;;4956091;28;20142;-79
2021/12/21 00:28:09;;;;;;;13.40;10.48;;;8.20;62.80;;;;;;4958868;29;20039;-80
2021/12/21 00:30:35;;;;;;;16.55;11.07;;;8.20;62.80;;;;;;4957258;28;20054;-80
2021/12/21 00:33:01;;;;;;;15.48;10.90;;;8.10;62.90;;;;;;4943828;28;20057;-80
2021/12/21 00:35:27;;;;;;;16.02;11.05;;;8.10;63.30;;;;;;4968402;28;20062;-80
2021/12/21 00:37:52;;;;;;;13.63;10.10;;;8.10;63.00;;;;;;4939918;29;20093;-79
2021/12/21 00:40:18;;;;;;;13.82;9.60;;;8.10;63.20;;;;;;4955837;29;20157;-80
2021/12/21 00:42:44;;;;;;;14.27;10.25;;;8.20;63.40;;;;;;4956612;29;20035;-81
2021/12/21 00:45:10;;;;;;;13.60;10.70;;;8.20;63.30;;;;;;4956599;29;20099;-80
2021/12/21 00:47:40;;;;;;;13.48;9.20;;;8.20;63.10;;;;;;4939249;29;20496;-80
2021/12/21 00:50:08;;;;;;;14.20;10.35;;;8.20;63.20;;;;;;4956100;28;20035;-80
2021/12/21 00:52:34;;;;;;;11.85;9.38;;;8.20;63.10;;;;;;4955346;28;20027;-80
2021/12/21 00:54:59;;;;;;;11.38;9.23;;;8.20;63.00;;;;;;4956877;29;20170;-80
2021/12/21 00:57:25;;;;;;;15.45;9.02;;;8.30;63.80;;;;;;4955841;28;20043;-80
2021/12/21 00:59:51;;;;;;;14.52;9.00;;;8.20;63.30;;;;;;4956344;29;20050;-81
2021/12/21 01:02:17;;;;;;;12.13;8.85;;;8.30;63.20;;;;;;4956111;29;20813;-81
2021/12/21 01:04:47;;;;;;;12.02;9.30;;;8.30;62.80;;;;;;4956396;29;20049;-81
2021/12/21 01:12:15;;;;;;;12.55;9.15;;;8.30;62.70;;;;;;4956320;29;20562;-81
2021/12/21 01:17:47;;;;;;;11.15;8.90;;;8.30;62.70;;;;;;4955696;29;20075;-80
2021/12/21 01:20:08;;;;;;;10.77;8.52;;;8.30;62.70;;;;;;4954596;29;20098;-79
2021/12/21 01:23:00;;;;;;;15.82;10.15;;;8.30;63.00;;;;;;4951626;28;20442;-80
2021/12/21 01:25:41;;;;;;;11.25;8.70;;;8.30;62.60;;;;;;4955103;28;20464;-79
2021/12/21 01:35:49;;;;;;;13.60;8.80;;;8.30;63.20;;;;;;4955235;28;20054;-80
2021/12/21 01:41:52;;;;;;;14.95;9.57;;;8.30;62.60;;;;;;4955305;29;20031;-80
2021/12/21 01:43:46;;;;;;;11.98;8.80;;;8.40;62.40;;;;;;4946725;28;20035;-80
2021/12/21 01:51:40;;;;;;;12.73;8.57;;;8.20;62.50;;;;;;4955784;29;20055;-81
2021/12/21 01:54:05;;;;;;;10.82;8.70;;;8.20;62.50;;;;;;4955194;29;20035;-81
2021/12/21 01:56:32;;;;;;;11.77;8.70;;;8.30;62.20;;;;;;4937998;29;20407;-81
2021/12/21 01:58:58;;;;;;;11.00;8.57;;;8.30;62.30;;;;;;4953836;29;20038;-81
2021/12/21 02:01:27;;;;;;;11.70;8.95;;;8.20;62.40;;;;;;4937835;29;20416;-81
2021/12/21 02:03:54;;;;;;;10.05;7.75;;;8.30;62.50;;;;;;4938023;29;20508;-82
2021/12/21 02:06:29;;;;;;;13.45;8.95;;;8.30;62.30;;;;;;4955882;29;20047;-81
2021/12/21 02:08:55;;;;;;;10.52;8.27;;;8.30;62.40;;;;;;4955118;28;20067;-81
2021/12/21 02:11:22;;;;;;;11.43;8.23;;;8.30;61.50;;;;;;4955122;29;20035;-81
2021/12/21 02:13:50;;;;;;;9.73;7.55;;;8.30;62.40;;;;;;4955469;28;20051;-81
2021/12/21 02:16:24;;;;;;;13.10;8.95;;;8.30;62.50;;;;;;4955071;29;20039;-81
2021/12/21 02:19:04;;;;;;;11.52;7.70;;;8.20;61.70;;;;;;4954876;29;20043;-80
2021/12/21 02:24:02;;;;;;;10.38;8.10;;;8.20;62.20;;;;;;4953649;29;20065;-80
2021/12/21 02:31:26;;;;;;;9.07;7.35;;;8.20;61.30;;;;;;4953970;28;20058;-80
2021/12/21 02:33:53;;;;;;;10.95;7.68;;;8.20;61.70;;;;;;4954929;29;20039;-80
2021/12/21 02:36:18;;;;;;;10.20;7.75;;;8.10;61.70;;;;;;4953806;29;20472;-80
2021/12/21 02:38:44;;;;;;;12.00;8.82;;;8.10;62.00;;;;;;4954284;28;20071;-80
2021/12/21 02:41:10;;;;;;;11.48;9.13;;;8.10;61.80;;;;;;4954464;29;20031;-81
2021/12/21 02:43:38;;;;;;;14.48;8.75;;;7.90;61.80;;;;;;4954699;29;20475;-80
2021/12/21 02:46:04;;;;;;;12.32;8.68;;;7.80;62.50;;;;;;4954129;29;20043;-80
2021/12/21 02:48:30;;;;;;;11.13;8.70;;;7.80;62.90;;;;;;4953964;28;20035;-80
2021/12/21 02:50:55;;;;;;;9.68;7.57;;;7.80;63.30;;;;;;4954077;29;20062;-80
2021/12/21 02:53:21;;;;;;;10.70;8.05;;;7.80;63.40;;;;;;4954547;29;20035;-80
2021/12/21 02:55:47;;;;;;;8.82;7.22;;;7.90;63.30;;;;;;4953354;29;20085;-78
2021/12/21 02:58:13;;;;;;;11.75;8.85;;;7.90;63.20;;;;;;4954516;29;20054;-79
2021/12/21 03:00:39;;;;;;;11.63;8.20;;;7.90;63.10;;;;;;4953669;29;20138;-79
2021/12/21 03:03:11;;;;;;;13.90;10.35;;;7.90;63.30;;;;;;4937297;28;20468;-78
2021/12/21 03:05:38;;;;;;;12.88;7.80;;;7.80;63.00;;;;;;4954227;28;20034;-78
2021/12/21 03:08:12;;;;;;;11.63;8.32;;;7.80;63.40;;;;;;4937335;29;20065;-79
2021/12/21 03:10:46;;;;;;;12.25;7.50;;;7.80;63.60;;;;;;4954426;29;20047;-79
2021/12/21 03:15:55;;;;;;;12.10;7.80;;;7.80;63.70;;;;;;4953779;28;20050;-79
2021/12/21 03:18:21;;;;;;;11.90;8.02;;;7.80;64.00;;;;;;4953721;28;20047;-80
2021/12/21 03:20:47;;;;;;;11.15;8.10;;;7.80;64.10;;;;;;4954136;29;20039;-80
2021/12/21 03:23:12;;;;;;;9.57;7.72;;;7.90;64.00;;;;;;4936821;29;20041;-80
2021/12/21 03:25:38;;;;;;;10.30;8.20;;;7.80;64.10;;;;;;4953779;29;20047;-80
2021/12/21 03:28:04;;;;;;;10.85;8.20;;;7.80;64.10;;;;;;4953748;28;20510;-80
2021/12/21 03:30:29;;;;;;;10.35;7.70;;;7.80;64.30;;;;;;4954070;29;20122;-80
2021/12/21 03:32:55;;;;;;;11.18;7.93;;;7.80;64.50;;;;;;4954218;29;20042;-80
2021/12/21 03:35:21;;;;;;;11.88;8.27;;;7.90;64.60;;;;;;4953482;28;20036;-81
2021/12/21 03:37:47;;;;;;;12.13;7.82;;;7.90;64.50;;;;;;4936812;29;20052;-81
2021/12/21 03:40:13;;;;;;;11.32;7.80;;;8.00;64.50;;;;;;4953636;29;20045;-80
2021/12/21 03:42:39;;;;;;;8.88;7.35;;;7.90;64.40;;;;;;4936889;29;20122;-80
2021/12/21 03:45:05;;;;;;;10.25;7.75;;;8.00;64.60;;;;;;4953553;29;20050;-80
2021/12/21 03:47:31;;;;;;;8.05;6.90;;;8.00;64.20;;;;;;4954386;28;20036;-80
2021/12/21 03:50:01;;;;;;;10.48;7.45;;;8.00;64.40;;;;;;4954255;29;20074;-80
2021/12/21 03:52:28;;;;;;;9.13;6.65;;;8.00;64.30;;;;;;4954124;29;20049;-80
2021/12/21 03:55:00;;;;;;;8.75;7.22;;;8.00;64.10;;;;;;4936081;28;20543;-80
2021/12/21 03:57:27;;;;;;;8.55;6.35;;;8.10;64.40;;;;;;4936738;29;20468;-80
2021/12/21 03:59:53;;;;;;;11.18;6.88;;;8.10;64.50;;;;;;4956365;28;20054;-80
2021/12/21 04:02:20;;;;;;;11.35;6.68;;;8.10;64.40;;;;;;4957783;28;20106;-80
2021/12/21 04:04:46;;;;;;;8.98;6.95;;;8.10;64.50;;;;;;4957250;28;20090;-80
2021/12/21 04:07:12;;;;;;;8.23;6.90;;;8.10;64.60;;;;;;4957892;29;20135;-80
2021/12/21 04:09:37;;;;;;;8.20;6.53;;;8.10;64.70;;;;;;4972144;28;20046;-81
2021/12/21 04:12:04;;;;;;;10.45;7.70;;;8.10;64.50;;;;;;4957260;29;20396;-81
2021/12/21 04:14:31;;;;;;;8.70;6.35;;;8.20;64.50;;;;;;4957223;28;20130;-80
2021/12/21 04:16:57;;;;;;;10.55;7.05;;;8.10;64.20;;;;;;4957350;29;20046;-80
2021/12/21 04:19:24;;;;;;;8.35;6.22;;;8.20;64.60;;;;;;4957334;29;20031;-80
2021/12/21 04:21:50;;;;;;;9.35;7.15;;;8.20;64.70;;;;;;4957497;29;20039;-80
2021/12/21 04:24:15;;;;;;;8.40;7.05;;;8.20;64.90;;;;;;4957073;29;20047;-80
2021/12/21 04:26:41;;;;;;;8.93;6.72;;;8.10;64.80;;;;;;4956808;28;20050;-80
2021/12/21 04:29:07;;;;;;;7.88;6.30;;;8.20;64.90;;;;;;4957068;29;20465;-80
2021/12/21 04:31:33;;;;;;;8.38;6.68;;;8.20;64.60;;;;;;4939878;29;20396;-80
2021/12/21 04:33:59;;;;;;;10.40;7.25;;;8.20;64.70;;;;;;4956584;29;20062;-80
2021/12/21 04:36:25;;;;;;;8.88;6.78;;;8.20;64.70;;;;;;4957679;28;20036;-80
2021/12/21 04:38:52;;;;;;;7.40;6.05;;;8.20;64.50;;;;;;4956733;29;20507;-80
2021/12/21 04:41:27;;;;;;;8.15;6.07;;;8.20;64.60;;;;;;4956748;29;20061;-80
2021/12/21 04:43:55;;;;;;;7.60;6.30;;;8.20;64.30;;;;;;4956601;29;20110;-79
2021/12/21 04:46:22;;;;;;;7.15;6.10;;;8.20;64.30;;;;;;4956942;29;20035;-80
2021/12/21 04:48:49;;;;;;;9.15;5.57;;;8.20;64.10;;;;;;4956224;29;20063;-80
2021/12/21 04:51:15;;;;;;;9.50;6.75;;;8.20;64.10;;;;;;4939778;29;20106;-80
2021/12/21 04:53:41;;;;;;;10.90;6.45;;;8.10;63.70;;;;;;4956501;28;20051;-80
2021/12/21 04:56:07;;;;;;;5.95;5.25;;;8.10;63.80;;;;;;4956516;29;20488;-79
2021/12/21 04:58:33;;;;;;;9.43;6.55;;;8.20;64.00;;;;;;4956246;29;20035;-79
2021/12/21 05:00:59;;;;;;;8.25;6.13;;;8.20;63.70;;;;;;4957654;29;20101;-80
2021/12/21 05:03:25;;;;;;;9.50;6.40;;;8.20;63.70;;;;;;4956190;28;20028;-80
2021/12/21 05:05:52;;;;;;;8.30;5.70;;;8.20;63.80;;;;;;4956249;28;20074;-80
2021/12/21 05:08:26;;;;;;;6.45;5.47;;;8.20;64.10;;;;;;4955788;28;20059;-80
2021/12/21 05:10:57;;;;;;;7.18;5.53;;;8.20;63.60;;;;;;4955189;28;20051;-80
2021/12/21 05:13:29;;;;;;;9.30;6.40;;;8.20;63.50;;;;;;4955856;29;20396;-80
2021/12/21 05:15:56;;;;;;;11.57;7.05;;;8.20;63.30;;;;;;4956643;28;20446;-81
2021/12/21 05:18:23;;;;;;;8.15;5.82;;;8.30;63.50;;;;;;4943723;28;20035;-82
2021/12/21 05:20:49;;;;;;;7.90;5.88;;;8.20;63.40;;;;;;4958204;28;20046;-81
2021/12/21 05:23:15;;;;;;;11.98;7.80;;;8.20;63.70;;;;;;4955322;29;20059;-81
2021/12/21 05:25:41;;;;;;;7.07;5.07;;;8.20;64.50;;;;;;4956249;29;20121;-82
2021/12/21 05:28:08;;;;;;;8.23;5.53;;;8.10;64.90;;;;;;4956296;29;20036;-81
2021/12/21 05:30:35;;;;;;;7.38;5.88;;;8.10;65.30;;;;;;4956081;29;20051;-81
2021/12/21 05:33:02;;;;;;;7.25;5.88;;;8.10;66.10;;;;;;4955707;29;20399;-81
2021/12/21 05:35:28;;;;;;;7.68;5.60;;;8.10;66.80;;;;;;4956024;28;20039;-81
2021/12/21 05:37:59;;;;;;;8.27;5.95;;;8.10;67.10;;;;;;4954602;28;20059;-80
2021/12/21 05:40:32;;;;;;;6.72;5.43;;;8.00;67.00;;;;;;4938641;29;20039;-81
2021/12/21 05:42:58;;;;;;;8.60;5.43;;;8.00;67.50;;;;;;4939104;29;20046;-81
2021/12/21 05:45:24;;;;;;;7.00;4.82;;;8.00;67.70;;;;;;4955188;28;20040;-80
2021/12/21 05:47:50;;;;;;;7.38;5.53;;;8.00;68.00;;;;;;4955337;28;20044;-81
2021/12/21 05:50:17;;;;;;;9.80;5.45;;;8.10;68.10;;;;;;4955652;29;20448;-80
2021/12/21 05:52:47;;;;;;;7.63;5.80;;;8.10;67.90;;;;;;4938345;29;20066;-82
2021/12/21 05:55:14;;;;;;;6.90;5.20;;;8.00;67.80;;;;;;4970706;28;20462;-82
2021/12/21 05:57:40;;;;;;;6.63;5.22;;;7.90;67.30;;;;;;4955403;29;20475;-82
2021/12/21 06:00:14;;;;;;;7.85;5.35;;;7.90;67.20;;;;;;4954954;28;20031;-80
2021/12/21 06:02:40;;;;;;;8.60;5.95;;;7.90;67.50;;;;;;4952570;29;20043;-79
2021/12/21 06:05:07;;;;;;;6.60;5.22;;;7.90;68.20;;;;;;4955375;29;21982;-78
2021/12/21 06:07:33;;;;;;;7.22;5.47;;;7.90;68.00;;;;;;4954623;29;20091;-78
2021/12/21 06:10:08;;;;;;;7.57;5.63;;;8.00;68.20;;;;;;4954258;29;20051;-78
2021/12/21 06:12:56;;;;;;;6.32;5.00;;;8.00;68.30;;;;;;4937754;28;20035;-78
2021/12/21 06:26:15;;;;;;;6.72;5.82;;;7.80;69.40;;;;;;4955145;28;20122;-78
2021/12/21 06:28:43;;;;;;;7.10;6.20;;;7.80;68.30;;;;;;4958511;28;20174;-80
2021/12/21 06:31:09;;;;;;;9.10;6.60;;;7.80;68.80;;;;;;4955028;28;20055;-77
2021/12/21 06:33:35;;;;;;;7.57;6.32;;;7.80;69.00;;;;;;4954402;29;20043;-78
2021/12/21 06:36:01;;;;;;;10.40;6.90;;;7.80;69.00;;;;;;4954668;29;20053;-77
2021/12/21 06:38:28;;;;;;;8.60;6.07;;;7.80;69.10;;;;;;4954403;29;20070;-78
2021/12/21 06:40:54;;;;;;;8.10;6.10;;;7.90;69.40;;;;;;4949334;29;20066;-84
2021/12/21 06:43:20;;;;;;;8.98;6.65;;;7.90;69.10;;;;;;4954620;28;20062;-78
2021/12/21 06:45:52;;;;;;;7.60;6.30;;;7.90;69.50;;;;;;4954389;29;20094;-81
2021/12/21 06:51:15;;;;;;;7.38;6.35;;;7.90;69.60;;;;;;4953733;28;20050;-81
2021/12/21 06:53:42;;;;;;;9.10;5.85;;;7.90;69.60;;;;;;4965646;28;20440;-79
2021/12/21 06:56:10;;;;;;;7.72;5.80;;;7.90;69.70;;;;;;4943941;29;20046;-81
2021/12/21 06:58:36;;;;;;;7.68;5.60;;;7.90;70.10;;;;;;4960961;28;20043;-79
2021/12/21 07:01:04;;;;;;;7.25;5.72;;;8.00;69.80;;;;;;4956135;29;20039;-82
2021/12/21 07:03:30;;;;;;;8.18;5.60;;;8.00;69.80;;;;;;4953444;29;20035;-79
2021/12/21 07:06:00;;;;;;;8.18;5.82;;;8.10;69.10;;;;;;4937355;29;20028;-81
2021/12/21 07:08:29;;;;;;;7.22;5.30;;;8.10;68.80;;;;;;4954708;29;20053;-81
2021/12/21 07:18:56;;;;;;;6.65;5.53;;;8.20;68.30;;;;;;4954226;28;20047;-82
2021/12/21 07:21:21;;;;;;;8.90;6.05;;;8.20;68.30;;;;;;4953337;28;20039;-82
2021/12/21 07:23:49;;;;;;;7.85;5.35;;;8.10;68.30;;;;;;4954361;28;20502;-82
2021/12/21 07:26:16;;;;;;;8.00;6.18;;;8.10;68.20;;;;;;4952626;28;20034;-82
2021/12/21 07:28:41;;;;;;;6.97;5.68;;;8.00;68.20;;;;;;4953026;28;20046;-82
2021/12/21 07:31:07;;;;;;;7.07;5.90;;;8.00;68.30;;;;;;4950566;28;20396;-79
2021/12/21 07:33:34;;;;;;;7.80;6.05;;;8.00;68.00;;;;;;4953195;28;20067;-79
2021/12/21 07:36:00;;;;;;;7.43;5.75;;;8.00;68.00;;;;;;4957100;28;20059;-79
2021/12/21 07:38:30;;;;;;;7.70;5.93;;;8.00;68.20;;;;;;4947073;28;20043;-79
2021/12/21 07:40:59;;;;;;;7.97;6.28;;;8.10;68.30;;;;;;4958099;28;20094;-79
2021/12/21 07:43:25;;;;;;;7.78;5.95;;;8.10;68.20;;;;;;4957684;29;20083;-79
2021/12/21 07:45:51;;;;;;;8.38;5.70;;;8.10;67.90;;;;;;4958265;29;20043;-79
2021/12/21 07:48:17;;;;;;;7.78;6.07;;;8.00;67.20;;;;;;4957631;28;20071;-79
2021/12/21 07:50:43;;;;;;;7.10;5.47;;;8.00;67.40;;;;;;4940324;29;20047;-80
2021/12/21 07:53:09;;;;;;;8.38;6.30;;;8.10;67.60;;;;;;4958153;29;20058;-79
2021/12/21 07:55:35;;;;;;;11.88;5.82;;;8.00;66.30;;;;;;4956763;28;20062;-78
2021/12/21 07:58:01;;;;;;;6.88;5.78;;;8.00;70.00;;;;;;4952274;28;20031;-78
2021/12/21 08:00:27;;;;;;;9.73;6.30;;;8.10;68.20;;;;;;4939091;29;20086;-77
2021/12/21 08:02:54;;;;;;;8.55;6.55;;;8.20;68.30;;;;;;4955473;29;20058;-79
2021/12/21 08:05:21;;;;;;;8.48;6.43;;;8.20;67.20;;;;;;4955803;28;20039;-79
2021/12/21 08:07:53;;;;;;;10.77;7.28;;;8.20;66.70;;;;;;4957295;28;20039;-79
2021/12/21 08:10:26;;;;;;;7.05;6.18;;;8.10;66.30;;;;;;4954664;28;20042;-79
2021/12/21 08:12:52;;;;;;;8.45;6.03;;;8.10;66.60;;;;;;4937807;29;20031;-78
2021/12/21 08:15:18;;;;;;;9.23;6.82;;;8.10;66.50;;;;;;4937876;28;21445;-80
2021/12/21 08:17:44;;;;;;;9.07;6.32;;;8.10;66.70;;;;;;4955776;28;20050;-79
2021/12/21 08:20:10;;;;;;;9.77;6.95;;;8.10;66.90;;;;;;4955203;28;20130;-79
2021/12/21 08:22:35;;;;;;;9.82;7.10;;;8.10;66.80;;;;;;4954239;28;20070;-79
2021/12/21 08:25:02;;;;;;;10.25;6.70;;;8.10;66.30;;;;;;4956052;28;20035;-79
2021/12/21 08:27:27;;;;;;;8.25;6.63;;;8.10;66.70;;;;;;4956476;28;20090;-79
2021/12/21 08:29:53;;;;;;;8.02;6.50;;;8.20;66.80;;;;;;4957020;28;20412;-80
2021/12/21 08:32:19;;;;;;;9.82;6.38;;;8.20;67.50;;;;;;4953696;28;20446;-81
2021/12/21 08:34:45;;;;;;;11.70;6.88;;;8.20;66.60;;;;;;4936413;28;20039;-81
2021/12/21 08:37:11;;;;;;;9.45;6.45;;;8.20;66.40;;;;;;4950790;28;20051;-84
2021/12/21 08:39:40;;;;;;;9.27;6.18;;;8.20;66.60;;;;;;4964066;28;20043;-82
2021/12/21 08:42:11;;;;;;;7.93;6.23;;;8.30;66.60;;;;;;4974652;28;20031;-82
2021/12/21 08:44:37;;;;;;;9.45;6.85;;;8.30;66.60;;;;;;4938466;28;20062;-82
2021/12/21 08:47:03;;;;;;;7.70;5.93;;;8.40;66.70;;;;;;4938806;28;20047;-82
2021/12/21 08:49:29;;;;;;;12.15;7.30;;;8.30;66.40;;;;;;4958034;28;20055;-83
2021/12/21 08:51:57;;;;;;;9.30;6.93;;;8.30;65.30;;;;;;4940130;29;20042;-82
2021/12/21 08:54:24;;;;;;;9.82;6.72;;;8.30;66.10;;;;;;4956489;28;20048;-82
2021/12/21 08:56:51;;;;;;;9.13;6.70;;;8.30;66.60;;;;;;4972291;28;20035;-82
2021/12/21 08:59:18;;;;;;;9.18;6.43;;;8.30;66.70;;;;;;4976419;28;20046;-83
2021/12/21 09:01:45;;;;;;;9.68;7.30;;;8.30;66.70;;;;;;4976053;28;20118;-83
2021/12/21 09:04:11;;;;;;;10.80;6.70;;;8.30;66.80;;;;;;4957590;28;20039;-83
2021/12/21 09:06:37;;;;;;;9.38;7.20;;;8.40;66.60;;;;;;4957336;28;20058;-83
2021/12/21 09:09:04;;;;;;;11.40;8.07;;;8.40;66.40;;;;;;4960826;28;20445;-83
2021/12/21 09:13:55;;;;;;;9.35;6.80;;;8.20;66.10;;;;;;4491949;23;20131;-88
2021/12/21 09:16:21;;;;;;;10.00;7.55;;;8.20;66.20;;;;;;4920804;29;20536;-86
2021/12/21 09:18:47;;;;;;;10.82;7.03;;;8.20;66.20;;;;;;4920908;29;20032;-86
2021/12/21 09:21:13;;;;;;;11.82;7.25;;;8.20;65.80;;;;;;4918269;29;20047;-87
2021/12/21 09:23:40;;;;;;;9.73;6.95;;;8.20;65.70;;;;;;4933874;29;20507;-87
2021/12/21 09:26:06;;;;;;;11.20;7.30;;;8.20;65.80;;;;;;4927114;29;20082;-86
2021/12/21 09:28:32;;;;;;;9.63;7.45;;;8.20;66.30;;;;;;4935331;29;20036;-86
2021/12/21 09:30:58;;;;;;;10.88;7.32;;;8.20;65.80;;;;;;4907467;29;20052;-86
2021/12/21 09:33:24;;;;;;;8.00;6.70;;;8.10;66.30;;;;;;4909432;29;20041;-87
2021/12/21 09:35:51;;;;;;;9.15;6.78;;;8.10;66.60;;;;;;4909354;29;20048;-87
2021/12/21 09:38:17;;;;;;;8.18;6.97;;;8.20;66.70;;;;;;4905244;29;20069;-86
2021/12/21 09:40:43;;;;;;;9.88;7.15;;;8.30;66.70;;;;;;4916968;29;20043;-87
2021/12/21 09:43:10;;;;;;;9.50;6.90;;;8.30;66.60;;;;;;4941212;23;20066;-81
2021/12/21 09:45:37;;;;;;;9.05;7.53;;;8.40;66.70;;;;;;4927416;29;20032;-87
2021/12/21 09:48:03;;;;;;;8.65;6.75;;;8.30;66.30;;;;;;4967073;28;20039;-87
2021/12/21 09:50:29;;;;;;;9.60;6.68;;;8.40;66.40;;;;;;4955724;28;20459;-87
2021/12/21 09:52:56;;;;;;;11.20;7.68;;;8.40;66.60;;;;;;4947959;28;20046;-87
2021/12/21 09:55:22;;;;;;;8.30;6.45;;;8.40;66.10;;;;;;4947563;28;20035;-86
2021/12/21 09:57:50;;;;;;;10.60;7.68;;;8.40;66.30;;;;;;4937554;29;20578;-81
2021/12/21 10:00:27;;;;;;;9.75;7.20;;;8.40;66.60;;;;;;4937569;28;20039;-80
2021/12/21 10:03:01;;;;;;;9.93;7.15;;;8.40;66.50;;;;;;4937832;29;20122;-80
2021/12/21 10:05:28;;;;;;;9.38;6.40;;;8.40;66.30;;;;;;4939395;29;20102;-87
2021/12/21 10:08:31;;;;;;;10.98;7.28;;;8.40;66.70;;;;;;4937445;29;20496;-87
2021/12/21 10:10:57;;;;;;;10.02;7.88;;;8.40;66.80;;;;;;4936384;29;22062;-86
2021/12/21 10:13:26;;;;;;;10.10;7.82;;;8.40;66.60;;;;;;4962614;28;20063;-86
2021/12/21 10:15:56;;;;;;;9.52;7.32;;;8.40;66.90;;;;;;4955298;28;20499;-86
2021/12/21 10:18:23;;;;;;;12.10;8.07;;;8.50;67.30;;;;;;4960452;28;20114;-86
2021/12/21 10:20:54;;;;;;;9.45;7.68;;;8.50;67.50;;;;;;4961270;28;20057;-86
2021/12/21 10:23:35;;;;;;;11.20;8.10;;;8.60;67.40;;;;;;4943901;28;20518;-85
2021/12/21 10:26:05;;;;;;;10.45;7.55;;;8.60;66.80;;;;;;4956578;29;20050;-86
2021/12/21 10:28:40;;;;;;;10.07;7.22;;;8.60;66.80;;;;;;4953973;28;20031;-87
2021/12/21 10:31:13;;;;;;;10.68;7.40;;;8.60;67.10;;;;;;4956633;28;20097;-87
2021/12/21 10:33:44;;;;;;;12.38;7.72;;;8.60;67.30;;;;;;4942462;29;20027;-87
2021/12/21 10:36:11;;;;;;;8.88;7.47;;;8.70;67.30;;;;;;4956368;28;20126;-81
2021/12/21 10:38:43;;;;;;;10.05;7.70;;;8.60;67.00;;;;;;4967582;28;20038;-81
2021/12/21 10:41:18;;;;;;;9.90;7.57;;;8.60;67.10;;;;;;4940824;29;20043;-81
2021/12/21 10:43:57;;;;;;;10.43;7.72;;;8.60;67.20;;;;;;4936573;29;20035;-77
2021/12/21 10:46:29;;;;;;;10.05;7.80;;;8.70;67.00;;;;;;4952723;28;20081;-80
2021/12/21 10:49:37;;;;;;;11.63;7.80;;;8.60;67.10;;;;;;4943754;28;20094;-78
2021/12/21 10:52:08;;;;;;;10.02;7.68;;;8.70;67.00;;;;;;4952646;28;20130;-80
2021/12/21 10:54:41;;;;;;;10.55;7.95;;;8.70;67.10;;;;;;4954448;28;20035;-87
2021/12/21 10:57:10;;;;;;;11.77;7.57;;;8.70;67.20;;;;;;4957741;28;20055;-86
2021/12/21 10:59:49;;;;;;;10.70;7.65;;;8.70;67.20;;;;;;4938557;29;20496;-87
2021/12/21 11:02:24;;;;;;;10.25;7.90;;;8.80;67.30;;;;;;4932543;29;20038;-86
2021/12/21 11:04:57;;;;;;;14.98;8.70;;;8.80;67.30;;;;;;4937692;29;20444;-87
2021/12/21 11:07:30;;;;;;;12.85;8.05;;;8.90;66.90;;;;;;4956855;28;20035;-87
2021/12/21 11:10:19;;;;;;;9.15;6.95;;;8.80;67.00;;;;;;4962804;28;20393;-87
2021/12/21 11:12:50;;;;;;;12.50;9.13;;;8.80;67.60;;;;;;4956018;28;22036;-86
2021/12/21 11:15:19;;;;;;;12.70;8.95;;;8.90;67.30;;;;;;4955480;29;20038;-87
2021/12/21 11:17:45;;;;;;;12.05;8.45;;;8.90;67.20;;;;;;4952573;29;20043;-87
2021/12/21 11:20:13;;;;;;;10.55;8.43;;;8.90;67.30;;;;;;4969270;28;20496;-77
2021/12/21 11:22:41;;;;;;;13.75;8.95;;;8.90;67.30;;;;;;4933271;29;20062;-77
2021/12/21 11:25:09;;;;;;;12.30;8.88;;;8.90;67.30;;;;;;4937516;29;20090;-87
2021/12/21 11:27:39;;;;;;;12.55;8.05;;;8.90;67.50;;;;;;4957750;28;20502;-88
2021/12/21 11:30:12;;;;;;;11.52;8.70;;;8.90;67.70;;;;;;4949771;28;20440;-88
2021/12/21 11:32:43;;;;;;;9.55;7.65;;;8.90;67.50;;;;;;4945849;29;20047;-79
2021/12/21 11:37:38;;;;;;;10.77;8.70;;;8.90;67.60;;;;;;4950374;28;20058;-79
2021/12/21 11:40:06;;;;;;;11.48;8.43;;;8.90;67.80;;;;;;4924376;29;20039;-79
2021/12/21 11:42:38;;;;;;;13.35;9.65;;;8.90;67.90;;;;;;4954165;28;20062;-78
2021/12/21 11:45:13;;;;;;;9.57;7.97;;;9.00;67.80;;;;;;4968434;28;20047;-78
2021/12/21 11:47:52;;;;;;;11.00;8.40;;;9.00;67.60;;;;;;4934660;29;20047;-78
2021/12/21 11:50:18;;;;;;;12.38;8.43;;;9.00;67.80;;;;;;4955353;28;20047;-78
2021/12/21 11:53:03;;;;;;;13.27;8.57;;;9.10;68.00;;;;;;4955713;28;20058;-77
2021/12/21 11:55:31;;;;;;;9.93;7.55;;;9.10;68.10;;;;;;4938654;29;20042;-88
2021/12/21 11:58:33;;;;;;;17.45;11.23;;;9.20;68.00;;;;;;4956350;29;20043;-87
2021/12/21 12:01:12;;;;;;;11.18;8.48;;;9.20;67.50;;;;;;4945378;28;20095;-87
2021/12/21 12:03:39;;;;;;;10.00;7.75;;;9.20;67.60;;;;;;4956338;28;20084;-85
2021/12/21 12:06:07;;;;;;;10.85;8.10;;;9.20;67.80;;;;;;4955992;28;20087;-85
2021/12/21 12:08:44;;;;;;;10.00;8.23;;;9.10;67.60;;;;;;4938800;29;20056;-85
2021/12/21 12:11:21;;;;;;;11.25;8.93;;;9.20;67.90;;;;;;4939221;29;20039;-86
2021/12/21 12:13:46;;;;;;;10.10;8.18;;;9.20;67.90;;;;;;4971575;28;20094;-86
2021/12/21 12:16:15;;;;;;;10.73;8.05;;;9.20;68.00;;;;;;4957083;29;20095;-86
2021/12/21 12:18:47;;;;;;;11.75;8.38;;;9.30;68.20;;;;;;4955511;28;20110;-86
2021/12/21 12:21:18;;;;;;;12.48;8.55;;;9.40;68.10;;;;;;4946075;28;20032;-86
2021/12/21 12:23:47;;;;;;;9.90;7.55;;;9.40;67.90;;;;;;4941350;29;20044;-86
2021/12/21 12:26:30;;;;;;;10.63;7.78;;;9.40;68.00;;;;;;4957382;28;20106;-86
2021/12/21 12:29:10;;;;;;;10.70;7.70;;;9.40;68.10;;;;;;4952316;28;20043;-86
2021/12/21 12:31:38;;;;;;;8.95;7.38;;;9.40;68.20;;;;;;4937483;28;20054;-80
2021/12/21 12:34:05;;;;;;;10.80;8.10;;;9.40;68.30;;;;;;4941083;28;20035;-86
2021/12/21 12:36:40;;;;;;;9.38;7.38;;;9.40;68.30;;;;;;4940527;29;20067;-85
2021/12/21 12:39:08;;;;;;;12.75;8.00;;;9.40;68.30;;;;;;4940529;29;20039;-84
2021/12/21 12:41:47;;;;;;;12.13;7.97;;;9.40;68.30;;;;;;4957950;28;20480;-86
2021/12/21 12:44:24;;;;;;;8.73;7.32;;;9.40;68.70;;;;;;4957669;28;20142;-82
2021/12/21 12:46:55;;;;;;;10.23;7.75;;;9.30;68.80;;;;;;4957781;29;20499;-85
2021/12/21 12:49:23;;;;;;;11.77;8.93;;;9.40;68.90;;;;;;4958447;28;20036;-86
2021/12/21 12:51:49;;;;;;;10.75;8.38;;;9.40;68.90;;;;;;4940573;29;20099;-85
2021/12/21 12:54:21;;;;;;;10.93;8.20;;;9.40;69.00;;;;;;4956766;28;20126;-80
2021/12/21 12:56:48;;;;;;;11.15;7.93;;;9.50;69.00;;;;;;4968907;28;20384;-80
2021/12/21 12:59:14;;;;;;;10.93;8.25;;;9.40;69.10;;;;;;4953531;28;20058;-79
2021/12/21 13:01:46;;;;;;;9.77;7.70;;;9.40;72.80;;;;;;4956717;28;20515;-79
2021/12/21 13:04:13;;;;;;;10.68;7.93;;;9.40;70.20;;;;;;4951502;28;20114;-79
2021/12/21 13:06:42;;;;;;;12.63;8.70;;;9.40;70.10;;;;;;4954432;28;20152;-79
2021/12/21 13:09:12;;;;;;;11.32;7.85;;;9.30;69.80;;;;;;4955032;28;20046;-79
2021/12/21 13:11:40;;;;;;;12.23;8.48;;;9.40;70.10;;;;;;4956335;28;20043;-84
2021/12/21 13:14:08;;;;;;;10.15;7.18;;;9.40;70.30;;;;;;4958217;28;20491;-84
2021/12/21 13:16:36;;;;;;;11.07;7.07;;;9.40;70.50;;;;;;4942093;28;20039;-84
2021/12/21 13:19:05;;;;;;;13.90;8.43;;;9.50;70.50;;;;;;4958244;28;20498;-84
2021/12/21 13:21:57;;;;;;;9.98;7.43;;;9.50;70.60;;;;;;4958600;28;20043;-85
2021/12/21 13:24:36;;;;;;;13.05;8.63;;;9.50;70.40;;;;;;4941736;28;20407;-85
2021/12/21 13:27:10;;;;;;;9.43;7.70;;;9.50;69.90;;;;;;4958287;28;20036;-84
2021/12/21 13:29:36;;;;;;;12.90;8.00;;;9.50;70.10;;;;;;4958664;28;20044;-82
2021/12/21 13:32:10;;;;;;;9.75;7.90;;;9.40;70.00;;;;;;4958060;28;20036;-82
2021/12/21 13:34:39;;;;;;;9.73;7.28;;;9.40;70.10;;;;;;4939377;28;20035;-84
2021/12/21 13:37:08;;;;;;;13.48;8.75;;;9.40;70.20;;;;;;4939155;28;20039;-84
2021/12/21 13:39:41;;;;;;;10.85;7.85;;;9.40;70.30;;;;;;4937146;29;20039;-85
2021/12/21 13:42:19;;;;;;;13.00;7.60;;;9.40;70.00;;;;;;4954586;28;20111;-85
2021/12/21 13:44:57;;;;;;;10.82;8.13;;;9.40;70.20;;;;;;4952690;28;20046;-85
2021/12/21 13:47:28;;;;;;;12.15;7.85;;;9.40;70.30;;;;;;4940085;29;20043;-84
2021/12/21 13:50:11;;;;;;;11.23;7.95;;;9.40;70.30;;;;;;4940214;28;20050;-85
2021/12/21 13:52:52;;;;;;;10.02;7.88;;;9.40;70.60;;;;;;4953185;28;20517;-86
2021/12/21 13:55:23;;;;;;;9.50;7.75;;;9.40;70.50;;;;;;4937835;29;20046;-80
2021/12/21 13:57:51;;;;;;;11.10;7.60;;;9.40;70.10;;;;;;4936181;29;20039;-79
2021/12/21 14:00:18;;;;;;;9.32;6.65;;;9.30;70.40;;;;;;4955973;28;20039;-85
2021/12/21 14:02:51;;;;;;;11.73;7.78;;;9.30;70.30;;;;;;4956798;28;20039;-84
2021/12/21 14:05:19;;;;;;;9.48;6.75;;;9.30;70.50;;;;;;4956962;28;20608;-85
2021/12/21 14:07:49;;;;;;;15.02;10.85;;;9.30;70.50;;;;;;4937494;28;20039;-85